Union, KY

8:40 AM EDT on August 23, 2014 (GMT -0400)
Redstone Village | Change Station
CLOSE
Current Station
Personal Weather Station
Location: Union, KY
Elevation: 860 ft
Nearby Weather Stations
Active Advisory: Dense Fog Advisory

Elev 860 ft 38.93 °N, 84.69 °W | Updated 2 seconds ago

Scattered Clouds
Scattered Clouds
73.2 °F
Feels Like 70 °F
N
0.0
Wind Variable Wind from WNW
Gusts 0.0 mph

Today
High -- | Low -- °F
--% Chance of Precip.
Yesterday
High -- | Low -- °F
Precip. -- in
6:59 AM 8:22 PM
Waning Crescent, 4% visible
Pressure 29.98 in
Visibility 6.0 miles
Clouds Scattered Clouds 15000 ft
Scattered Clouds 20000 ft
Heat Index 70 °F
Dew Point 71 °F
Humidity 92%
Rainfall 0.00 in
Snow Depth Not available.
UV 0 out of 12
Pollen 9.60 out of 12
Air Quality Not available.
Flu Activity Not available.
METAR KCVG 231152Z 00000KT 6SM BR SCT150 SCT200 23/22 A3001 RMK AO2 SLP151 SVT V BKN 70009 T02280217 10244 20206 51008

More Conditions Fewer Conditions

Pressure 29.98 in
Visibility 6.0 miles
Clouds Scattered Clouds 15000 ft
Scattered Clouds 20000 ft
Heat Index 70 °F
Dew Point 71 °F
Humidity 92%
Rainfall 0.00 in
Snow Depth Not available.
UV 0 out of 12
Pollen 9.60 out of 12
Air Quality Not available.
Flu Activity Not available.
METAR KCVG 231152Z 00000KT 6SM BR SCT150 SCT200 23/22 A3001 RMK AO2 SLP151 SVT V BKN 70009 T02280217 10244 20206 51008

More Conditions Fewer Conditions

10-Day Weather Forecast

Almanac

Astronomy

Aug. 23, 2014 Rise Set
Actual Time 6:59 AM EDT 8:22 PM EDT
Civil Twilight 6:31 AM EDT 8:50 PM EDT
Nautical Twilight 5:58 AM EDT 9:23 PM EDT
Astronomical Twilight 5:23 AM EDT 9:58 PM EDT
Moon 5:15 AM EDT 7:06 PM EDT
Length of Visible Light 14h 18m
Length of Day
13h 22m
Tomorrow will be 2m 21s shorter.
Waning Crescent, 4% of the Moon is Illuminated
Today
Waning Crescent
Aug 25
New
Sep 2
First Quarter
Sep 8
Full
Sep 15
Last Quarter

Today's Extremes

State Highs State Lows

Community

WunderPhotos

Upload Photos

1,746,435 photos uploaded!

WunderBlogs® & News

By Dr. Jeff Masters
Director of Meteorology, Weather Underground
By Kari Strenfel
Meteorologist, Weather Underground
By Christopher C. Burt
Weather Historian, Weather Underground
August 23, 2014
August 23, 2014
August 23, 2014

Nearby

Snow Depth

Station Depth Elevation
No new snow has been reported.

Earthquake Activity

City Distance Mag. Time & Date
No recent earthquake activity has been reported nearby.
Minimum magnitude displayed is 2.5.

Coastal Water Temperatures

Place Temperature
No Stations Reporting

Nearby Weather Stations